createdAt,value
2022-10-30T00:02:54.566Z,99.90
2022-10-30T00:06:57.598Z,99.90
2022-10-30T00:11:06.115Z,99.90
2022-10-30T00:15:10.979Z,99.90
2022-10-30T00:19:13.836Z,99.90
2022-10-30T00:23:16.663Z,99.90
2022-10-30T00:27:19.536Z,99.90
2022-10-30T00:31:24.020Z,99.90
2022-10-30T00:35:40.868Z,99.90
2022-10-30T00:39:43.826Z,99.90
2022-10-30T00:43:48.955Z,99.90
2022-10-30T00:47:55.005Z,99.90
2022-10-30T00:51:58.163Z,99.90
2022-10-30T00:56:02.959Z,99.90
2022-10-30T01:00:06.709Z,99.90
2022-10-30T01:04:13.789Z,99.90
2022-10-30T01:08:16.613Z,99.90
2022-10-30T01:12:19.545Z,99.90
2022-10-30T01:16:41.823Z,99.90
2022-10-30T01:21:04.837Z,99.90
2022-10-30T01:25:13.158Z,99.90
2022-10-30T01:29:23.400Z,99.90
2022-10-30T01:33:31.302Z,99.90
2022-10-30T01:37:38.491Z,99.90
2022-10-30T01:41:41.367Z,99.90
2022-10-30T01:45:54.261Z,99.90
2022-10-30T01:50:06.926Z,99.90
2022-10-30T01:54:14.084Z,99.90
2022-10-30T01:58:20.737Z,99.90
2022-10-30T02:02:24.006Z,99.90
2022-10-30T02:06:27.080Z,99.90
2022-10-30T02:10:32.506Z,99.90
2022-10-30T02:14:37.545Z,99.90
2022-10-30T02:18:40.398Z,99.90
2022-10-30T02:22:44.726Z,99.90
2022-10-30T02:26:47.666Z,99.90
2022-10-30T02:30:50.525Z,99.90
2022-10-30T02:34:53.354Z,99.90
2022-10-30T02:38:57.625Z,99.90
2022-10-30T02:43:00.690Z,99.90
2022-10-30T02:47:03.570Z,99.90
2022-10-30T02:51:06.753Z,99.90
2022-10-30T02:55:11.057Z,99.90
2022-10-30T02:59:13.927Z,99.90
2022-10-30T03:03:19.986Z,99.90
2022-10-30T03:07:25.977Z,99.90
2022-10-30T03:11:30.295Z,99.90
2022-10-30T03:15:33.140Z,99.90
2022-10-30T03:19:36.408Z,99.90
2022-10-30T03:23:39.290Z,99.90
2022-10-30T03:27:43.511Z,99.90
2022-10-30T03:31:46.385Z,99.90
2022-10-30T03:35:50.288Z,99.90
2022-10-30T03:39:53.151Z,99.90
2022-10-30T03:43:57.362Z,99.90
2022-10-30T03:48:00.821Z,99.90
2022-10-30T03:52:04.034Z,99.90
2022-10-30T03:56:07.375Z,99.90
2022-10-30T04:00:12.885Z,99.90
2022-10-30T04:04:15.849Z,99.90
2022-10-30T04:08:19.049Z,99.90
2022-10-30T04:12:21.885Z,99.90
2022-10-30T04:16:26.146Z,99.90
2022-10-30T04:20:29.027Z,99.90
2022-10-30T04:24:31.855Z,99.90
2022-10-30T04:28:34.725Z,99.90
2022-10-30T04:32:46.363Z,99.90
2022-10-30T04:36:49.231Z,99.90
2022-10-30T04:40:52.100Z,99.90
2022-10-30T04:44:55.074Z,99.90
2022-10-30T04:48:59.283Z,99.90
2022-10-30T04:53:03.075Z,99.90
2022-10-30T04:57:06.005Z,99.90
2022-10-30T05:01:09.058Z,99.90
2022-10-30T05:05:13.347Z,99.90
2022-10-30T05:09:16.177Z,99.90
2022-10-30T05:13:19.042Z,99.90
2022-10-30T05:17:21.954Z,99.90
2022-10-30T05:21:26.253Z,99.90
2022-10-30T05:25:29.176Z,99.90
2022-10-30T05:29:32.003Z,99.90
2022-10-30T05:33:34.895Z,99.90
2022-10-30T05:37:39.137Z,99.90
2022-10-30T05:41:42.014Z,99.90
2022-10-30T05:45:45.034Z,99.90
2022-10-30T05:49:47.882Z,99.90
2022-10-30T05:53:52.075Z,99.90
2022-10-30T05:57:57.029Z,99.90
2022-10-30T06:02:00.295Z,99.90
2022-10-30T06:06:03.316Z,99.90
2022-10-30T06:10:08.027Z,99.90
2022-10-30T06:14:10.870Z,99.90
2022-10-30T06:18:13.714Z,99.90
2022-10-30T06:22:16.575Z,99.90
2022-10-30T06:26:20.842Z,99.90
2022-10-30T06:30:24.030Z,99.90
2022-10-30T06:34:27.255Z,99.90
2022-10-30T06:38:30.210Z,99.90
2022-10-30T06:42:34.561Z,99.90
2022-10-30T06:46:37.460Z,99.90
2022-10-30T06:50:40.316Z,99.90
2022-10-30T06:54:43.156Z,99.90
2022-10-30T06:58:47.418Z,99.90
2022-10-30T07:02:57.516Z,99.90
2022-10-30T07:07:00.664Z,99.90
2022-10-30T07:11:03.679Z,99.90
2022-10-30T07:15:08.678Z,99.90
2022-10-30T07:19:11.621Z,99.90
2022-10-30T07:23:14.484Z,99.90
2022-10-30T07:27:17.334Z,99.90
2022-10-30T07:31:34.849Z,99.90
2022-10-30T07:35:44.434Z,99.90
2022-10-30T07:39:47.293Z,99.90
2022-10-30T07:43:50.145Z,99.90
2022-10-30T07:47:54.815Z,99.90
2022-10-30T07:51:57.731Z,99.90
2022-10-30T07:56:00.715Z,99.90
2022-10-30T08:00:04.756Z,99.90
2022-10-30T08:04:11.259Z,99.90
2022-10-30T08:08:14.193Z,99.90
2022-10-30T08:12:17.062Z,99.90
2022-10-30T08:16:19.914Z,99.90
2022-10-30T08:20:25.111Z,99.90
2022-10-30T08:24:28.040Z,99.90
2022-10-30T08:28:32.827Z,99.90
2022-10-30T08:32:36.069Z,99.90
2022-10-30T08:36:42.708Z,99.90
2022-10-30T08:40:48.205Z,99.90
2022-10-30T08:44:51.159Z,99.90
2022-10-30T08:48:55.019Z,99.90
2022-10-30T08:53:03.165Z,99.90
2022-10-30T08:57:07.474Z,99.90
2022-10-30T09:01:10.396Z,99.90
2022-10-30T09:05:13.251Z,99.90
2022-10-30T09:09:17.545Z,99.90
2022-10-30T09:13:20.398Z,99.90
2022-10-30T09:17:23.263Z,99.90
2022-10-30T09:21:26.132Z,99.90
2022-10-30T09:25:30.403Z,99.90
2022-10-30T09:29:35.573Z,99.90
2022-10-30T09:33:38.445Z,99.90
2022-10-30T09:37:41.359Z,99.90
2022-10-30T09:41:57.032Z,99.90
2022-10-30T09:46:19.984Z,99.90
2022-10-30T09:50:26.934Z,99.90
2022-10-30T09:54:38.204Z,99.90
2022-10-30T09:58:50.096Z,99.90
2022-10-30T10:02:57.903Z,99.90
2022-10-30T10:07:03.114Z,99.90
2022-10-30T10:15:15.456Z,99.90
2022-10-30T10:19:21.076Z,99.90
2022-10-30T10:23:27.990Z,99.90
2022-10-30T10:27:39.406Z,99.90
2022-10-30T10:31:46.879Z,99.90
2022-10-30T10:36:02.185Z,99.90
2022-10-30T10:40:17.540Z,99.90
2022-10-30T10:44:27.202Z,99.90
2022-10-30T10:48:42.690Z,99.90
2022-10-30T10:52:48.530Z,99.90
2022-10-30T10:56:52.131Z,99.90
2022-10-30T11:00:57.359Z,99.90
2022-10-30T11:05:06.367Z,99.90
2022-10-30T11:09:15.271Z,99.90
2022-10-30T11:13:18.223Z,99.90
2022-10-30T11:17:23.550Z,99.90
2022-10-30T11:21:28.846Z,99.90
2022-10-30T11:25:35.170Z,99.90
2022-10-30T11:29:38.174Z,99.90
2022-10-30T11:33:41.045Z,99.90
2022-10-30T11:37:46.348Z,99.90
2022-10-30T11:41:54.869Z,99.90
2022-10-30T11:45:58.530Z,99.90
2022-10-30T11:50:02.411Z,99.90
2022-10-30T11:54:07.677Z,99.90
2022-10-30T11:58:24.127Z,98.10
2022-10-30T12:02:30.710Z,99.90
2022-10-30T12:06:33.672Z,99.10
2022-10-30T12:10:43.274Z,96.10
2022-10-30T12:14:46.085Z,96.40
2022-10-30T12:18:54.490Z,99.60
2022-10-30T12:22:57.689Z,95.70
2022-10-30T12:27:04.317Z,96.60
2022-10-30T12:31:10.666Z,94.70
2022-10-30T12:35:22.887Z,98.40
2022-10-30T12:39:30.536Z,94.70
2022-10-30T12:43:36.109Z,93.70
2022-10-30T12:47:42.281Z,94.80
2022-10-30T12:51:49.748Z,97.80
2022-10-30T12:55:55.596Z,97.40
2022-10-30T13:00:02.617Z,98.60
2022-10-30T13:04:09.697Z,98.90
2022-10-30T13:08:16.104Z,99.20
2022-10-30T13:12:20.760Z,99.50
2022-10-30T13:16:26.971Z,99.00
2022-10-30T13:20:31.450Z,99.40
2022-10-30T13:24:41.698Z,99.20
2022-10-30T13:28:47.593Z,99.60
2022-10-30T13:33:00.825Z,99.60
2022-10-30T13:37:06.908Z,99.90
2022-10-30T13:41:15.405Z,99.90
2022-10-30T13:45:29.707Z,99.90
2022-10-30T13:49:49.068Z,99.90
2022-10-30T13:53:56.997Z,99.90
2022-10-30T13:58:02.943Z,99.70
2022-10-30T14:02:10.739Z,99.90
2022-10-30T14:06:19.703Z,99.90
2022-10-30T14:10:28.455Z,99.90
2022-10-30T14:14:32.026Z,99.90
2022-10-30T14:18:52.833Z,99.90
2022-10-30T14:23:10.050Z,99.90
2022-10-30T14:27:19.201Z,99.90
2022-10-30T14:31:34.222Z,99.90
2022-10-30T14:35:38.935Z,99.90
2022-10-30T14:39:43.754Z,99.90
2022-10-30T14:43:50.026Z,99.90
2022-10-30T14:47:55.822Z,99.90
2022-10-30T14:52:05.634Z,99.90
2022-10-30T14:56:18.353Z,99.90
2022-10-30T15:00:40.191Z,99.90
2022-10-30T15:04:48.436Z,99.90
2022-10-30T15:09:14.887Z,99.90
2022-10-30T15:13:20.228Z,99.90
2022-10-30T15:17:26.738Z,99.90
2022-10-30T15:21:33.046Z,99.90
2022-10-30T15:25:37.960Z,99.90
2022-10-30T15:29:44.478Z,99.90
2022-10-30T15:33:47.611Z,99.90
2022-10-30T15:38:00.236Z,99.90
2022-10-30T15:42:04.228Z,99.90
2022-10-30T15:46:16.012Z,99.90
2022-10-30T15:50:21.766Z,99.90
2022-10-30T15:54:25.822Z,99.90
2022-10-30T15:58:32.545Z,99.90
2022-10-30T16:02:37.461Z,99.90
2022-10-30T16:06:40.335Z,99.90
2022-10-30T16:10:44.238Z,99.90
2022-10-30T16:14:47.115Z,99.90
2022-10-30T16:18:51.697Z,99.90
2022-10-30T16:22:54.680Z,99.90
2022-10-30T16:27:03.817Z,99.90
2022-10-30T16:31:07.713Z,99.90
2022-10-30T16:35:12.672Z,99.90
2022-10-30T16:39:16.521Z,99.90
2022-10-30T16:43:27.007Z,99.90
2022-10-30T16:47:30.015Z,99.90
2022-10-30T16:51:34.338Z,99.90
2022-10-30T16:55:38.596Z,99.90
2022-10-30T16:59:46.122Z,99.90
2022-10-30T17:03:50.165Z,99.90
2022-10-30T17:07:58.341Z,99.90
2022-10-30T17:12:03.688Z,99.90
2022-10-30T17:16:18.856Z,99.90
2022-10-30T17:20:30.864Z,99.90
2022-10-30T17:24:36.810Z,99.90
2022-10-30T17:28:40.688Z,99.90
2022-10-30T17:32:44.254Z,99.90
2022-10-30T17:36:47.792Z,99.90
2022-10-30T17:40:52.140Z,99.90
2022-10-30T17:44:55.009Z,99.90
2022-10-30T17:48:58.689Z,99.90
2022-10-30T17:53:02.008Z,99.90
2022-10-30T17:57:06.560Z,99.90
2022-10-30T18:01:10.824Z,99.90
2022-10-30T18:05:15.706Z,99.90
2022-10-30T18:09:18.592Z,99.90
2022-10-30T18:13:22.825Z,99.90
2022-10-30T18:17:25.736Z,99.90
2022-10-30T18:21:28.666Z,99.90
2022-10-30T18:25:32.602Z,99.90
2022-10-30T18:29:37.303Z,99.90
2022-10-30T18:33:40.615Z,99.90
2022-10-30T18:37:43.627Z,99.90
2022-10-30T18:41:47.263Z,99.90
2022-10-30T18:45:51.744Z,99.90
2022-10-30T18:49:56.636Z,99.90
2022-10-30T18:54:00.104Z,99.90
2022-10-30T18:58:03.896Z,99.90
2022-10-30T19:02:16.191Z,99.90
2022-10-30T19:06:19.949Z,99.90
2022-10-30T19:10:22.966Z,99.90
2022-10-30T19:14:26.696Z,99.90
2022-10-30T19:18:32.775Z,99.90
2022-10-30T19:22:35.641Z,99.90
2022-10-30T19:26:38.488Z,99.90
2022-10-30T19:30:41.647Z,99.90
2022-10-30T19:34:45.960Z,99.90
2022-10-30T19:38:48.830Z,99.90
2022-10-30T19:42:51.741Z,99.90
2022-10-30T19:46:54.605Z,99.90
2022-10-30T19:50:59.754Z,99.90
2022-10-30T19:55:02.634Z,99.90
2022-10-30T19:59:06.881Z,99.90
2022-10-30T20:03:11.039Z,99.90
2022-10-30T20:07:15.246Z,99.90
2022-10-30T20:11:18.092Z,99.90
2022-10-30T20:15:22.471Z,99.90
2022-10-30T20:19:28.402Z,99.90
2022-10-30T20:23:32.942Z,99.90
2022-10-30T20:27:35.793Z,99.90
2022-10-30T20:31:38.681Z,99.90
2022-10-30T20:35:42.203Z,99.90
2022-10-30T20:39:46.416Z,99.90
2022-10-30T20:43:50.197Z,99.90
2022-10-30T20:47:53.074Z,99.90
2022-10-30T20:51:55.935Z,99.90
2022-10-30T20:56:01.201Z,99.90
2022-10-30T21:00:04.629Z,99.90
2022-10-30T21:08:10.951Z,99.90
2022-10-30T21:12:15.191Z,99.90
2022-10-30T21:16:18.126Z,99.90
2022-10-30T21:20:21.055Z,99.90
2022-10-30T21:28:28.458Z,99.90
2022-10-30T21:32:31.708Z,99.90
2022-10-30T21:36:35.674Z,99.90
2022-10-30T21:40:38.481Z,99.90
2022-10-30T21:44:42.668Z,99.90
2022-10-30T21:48:49.030Z,99.90
2022-10-30T21:52:51.965Z,99.90
2022-10-30T21:56:55.214Z,99.90
2022-10-30T22:00:59.784Z,99.90
2022-10-30T22:05:02.691Z,99.90
2022-10-30T22:09:06.635Z,99.90
2022-10-30T22:13:09.513Z,99.90
2022-10-30T22:17:14.036Z,99.90
2022-10-30T22:21:17.231Z,99.90
2022-10-30T22:25:21.535Z,99.90
2022-10-30T22:29:24.440Z,99.90
2022-10-30T22:33:30.400Z,99.90
2022-10-30T22:37:33.275Z,99.90
2022-10-30T22:41:38.074Z,99.90
2022-10-30T22:45:41.253Z,99.90
2022-10-30T22:53:49.550Z,99.90
2022-10-30T22:57:53.638Z,99.90
2022-10-30T23:01:56.621Z,99.90
2022-10-30T23:05:59.913Z,99.90
2022-10-30T23:10:04.276Z,99.90
2022-10-30T23:14:07.162Z,99.90
2022-10-30T23:18:10.006Z,99.90
2022-10-30T23:22:12.882Z,99.90
2022-10-30T23:26:17.984Z,99.90
2022-10-30T23:30:20.816Z,99.90
2022-10-30T23:34:23.654Z,99.90
2022-10-30T23:38:26.722Z,99.90
2022-10-30T23:42:30.945Z,99.90
2022-10-30T23:46:33.857Z,99.90
2022-10-30T23:50:36.981Z,99.90
2022-10-30T23:54:39.926Z,99.90
2022-10-30T23:58:45.054Z,99.90
